sensor_id;sensor_type;location;lat;lon;timestamp;pressure;altitude;pressure_sealevel;temperature;humidity
45255;BME280;30989;52.078;21.014;2024-02-26T00:02:00;165070.91;;;5.04;100.00
45255;BME280;30989;52.078;21.014;2024-02-26T00:04:25;165065.56;;;5.02;100.00
45255;BME280;30989;52.078;21.014;2024-02-26T00:06:51;165041.53;;;4.93;100.00
45255;BME280;30989;52.078;21.014;2024-02-26T00:09:19;165044.22;;;4.94;100.00
45255;BME280;30989;52.078;21.014;2024-02-26T00:11:44;165037.53;;;4.91;100.00
45255;BME280;30989;52.078;21.014;2024-02-26T00:14:10;165032.22;;;4.89;100.00
45255;BME280;30989;52.078;21.014;2024-02-26T00:16:35;165022.88;;;4.85;100.00
45255;BME280;30989;52.078;21.014;2024-02-26T00:19:01;165012.19;;;4.81;100.00
45255;BME280;30989;52.078;21.014;2024-02-26T00:21:28;164996.19;;;4.75;100.00
45255;BME280;30989;52.078;21.014;2024-02-26T00:23:53;164992.19;;;4.74;100.00
45255;BME280;30989;52.078;21.014;2024-02-26T00:26:19;164998.84;;;4.76;100.00
45255;BME280;30989;52.078;21.014;2024-02-26T00:28:44;164982.84;;;4.70;100.00
45255;BME280;30989;52.078;21.014;2024-02-26T00:31:10;164981.50;;;4.70;100.00
45255;BME280;30989;52.078;21.014;2024-02-26T00:33:35;164985.50;;;4.71;100.00
45255;BME280;30989;52.078;21.014;2024-02-26T00:36:01;164982.84;;;4.70;100.00
45255;BME280;30989;52.078;21.014;2024-02-26T00:38:26;164976.16;;;4.68;100.00
45255;BME280;30989;52.078;21.014;2024-02-26T00:40:52;164976.16;;;4.68;100.00
45255;BME280;30989;52.078;21.014;2024-02-26T00:43:17;164982.84;;;4.70;100.00
45255;BME280;30989;52.078;21.014;2024-02-26T00:45:43;164977.50;;;4.68;100.00
45255;BME280;30989;52.078;21.014;2024-02-26T00:48:08;164969.50;;;4.65;100.00
45255;BME280;30989;52.078;21.014;2024-02-26T00:50:34;164952.16;;;4.59;100.00
45255;BME280;30989;52.078;21.014;2024-02-26T00:53:01;164950.81;;;4.58;100.00
45255;BME280;30989;52.078;21.014;2024-02-26T00:55:26;164944.16;;;4.56;100.00
45255;BME280;30989;52.078;21.014;2024-02-26T00:57:52;164960.16;;;4.62;100.00
45255;BME280;30989;52.078;21.014;2024-02-26T01:00:17;164954.81;;;4.60;100.00
45255;BME280;30989;52.078;21.014;2024-02-26T01:02:43;164942.81;;;4.55;100.00
45255;BME280;30989;52.078;21.014;2024-02-26T01:05:11;164945.50;;;4.56;100.00
45255;BME280;30989;52.078;21.014;2024-02-26T01:07:37;164937.47;;;4.53;100.00
45255;BME280;30989;52.078;21.014;2024-02-26T01:10:03;164929.47;;;4.50;100.00
45255;BME280;30989;52.078;21.014;2024-02-26T01:12:29;164928.16;;;4.49;100.00
45255;BME280;30989;52.078;21.014;2024-02-26T01:14:55;164921.47;;;4.47;100.00
45255;BME280;30989;52.078;21.014;2024-02-26T01:17:20;164917.47;;;4.45;100.00
45255;BME280;30989;52.078;21.014;2024-02-26T01:19:46;164913.47;;;4.44;100.00
45255;BME280;30989;52.078;21.014;2024-02-26T01:22:11;164901.47;;;4.39;100.00
45255;BME280;30989;52.078;21.014;2024-02-26T01:24:37;164897.47;;;4.38;100.00
45255;BME280;30989;52.078;21.014;2024-02-26T01:27:02;164900.13;;;4.39;100.00
45255;BME280;30989;52.078;21.014;2024-02-26T01:29:28;164894.81;;;4.37;100.00
45255;BME280;30989;52.078;21.014;2024-02-26T01:31:53;164893.47;;;4.36;100.00
45255;BME280;30989;52.078;21.014;2024-02-26T01:34:20;164889.47;;;4.35;100.00
45255;BME280;30989;52.078;21.014;2024-02-26T01:36:45;164878.78;;;4.31;100.00
45255;BME280;30989;52.078;21.014;2024-02-26T01:39:11;164881.47;;;4.32;100.00
45255;BME280;30989;52.078;21.014;2024-02-26T01:41:38;164877.47;;;4.30;100.00
45255;BME280;30989;52.078;21.014;2024-02-26T01:44:04;164873.47;;;4.29;100.00
45255;BME280;30989;52.078;21.014;2024-02-26T01:46:31;164868.13;;;4.27;100.00
45255;BME280;30989;52.078;21.014;2024-02-26T01:48:58;164862.78;;;4.25;100.00
45255;BME280;30989;52.078;21.014;2024-02-26T01:51:24;164850.78;;;4.20;100.00
45255;BME280;30989;52.078;21.014;2024-02-26T01:53:51;164846.78;;;4.18;100.00
45255;BME280;30989;52.078;21.014;2024-02-26T01:56:17;164852.13;;;4.20;100.00
45255;BME280;30989;52.078;21.014;2024-02-26T01:58:43;164832.13;;;4.13;100.00
45255;BME280;30989;52.078;21.014;2024-02-26T02:01:09;164841.44;;;4.16;100.00
45255;BME280;30989;52.078;21.014;2024-02-26T02:03:36;164833.44;;;4.13;100.00
45255;BME280;30989;52.078;21.014;2024-02-26T02:06:02;164828.13;;;4.11;100.00
45255;BME280;30989;52.078;21.014;2024-02-26T02:08:28;164822.78;;;4.09;100.00
45255;BME280;30989;52.078;21.014;2024-02-26T02:10:54;164818.78;;;4.08;100.00
45255;BME280;30989;52.078;21.014;2024-02-26T02:13:20;164802.78;;;4.02;100.00
45255;BME280;30989;52.078;21.014;2024-02-26T02:15:45;164801.44;;;4.01;100.00
45255;BME280;30989;52.078;21.014;2024-02-26T02:18:11;164817.44;;;4.07;100.00
45255;BME280;30989;52.078;21.014;2024-02-26T02:20:36;164818.78;;;4.08;100.00
45255;BME280;30989;52.078;21.014;2024-02-26T02:23:02;164813.44;;;4.06;100.00
45255;BME280;30989;52.078;21.014;2024-02-26T02:25:28;164814.78;;;4.06;100.00
45255;BME280;30989;52.078;21.014;2024-02-26T02:27:54;164812.09;;;4.05;100.00
45255;BME280;30989;52.078;21.014;2024-02-26T02:30:29;164825.44;;;4.10;100.00
45255;BME280;30989;52.078;21.014;2024-02-26T02:32:55;164820.13;;;4.08;100.00
45255;BME280;30989;52.078;21.014;2024-02-26T02:35:21;164801.44;;;4.01;100.00
45255;BME280;30989;52.078;21.014;2024-02-26T02:37:46;164814.78;;;4.06;100.00
45255;BME280;30989;52.078;21.014;2024-02-26T02:40:12;164804.13;;;4.02;100.00
45255;BME280;30989;52.078;21.014;2024-02-26T02:42:37;164802.78;;;4.02;100.00
45255;BME280;30989;52.078;21.014;2024-02-26T02:45:03;164789.44;;;3.97;100.00
45255;BME280;30989;52.078;21.014;2024-02-26T02:47:28;164776.09;;;3.92;100.00
45255;BME280;30989;52.078;21.014;2024-02-26T02:49:54;164765.44;;;3.87;100.00
45255;BME280;30989;52.078;21.014;2024-02-26T02:52:19;164737.44;;;3.77;100.00
45255;BME280;30989;52.078;21.014;2024-02-26T02:54:45;164732.09;;;3.75;100.00
45255;BME280;30989;52.078;21.014;2024-02-26T02:57:12;164722.78;;;3.71;100.00
45255;BME280;30989;52.078;21.014;2024-02-26T02:59:37;164713.44;;;3.68;100.00
45255;BME280;30989;52.078;21.014;2024-02-26T03:02:03;164705.44;;;3.65;100.00
45255;BME280;30989;52.078;21.014;2024-02-26T03:04:28;164700.13;;;3.63;100.00
45255;BME280;30989;52.078;21.014;2024-02-26T03:06:55;164697.44;;;3.62;100.00
45255;BME280;30989;52.078;21.014;2024-02-26T03:09:20;164696.13;;;3.61;100.00
45255;BME280;30989;52.078;21.014;2024-02-26T03:11:46;164694.78;;;3.61;100.00
45255;BME280;30989;52.078;21.014;2024-02-26T03:14:11;164685.44;;;3.57;100.00
45255;BME280;30989;52.078;21.014;2024-02-26T03:16:37;164678.78;;;3.54;100.00
45255;BME280;30989;52.078;21.014;2024-02-26T03:19:02;164670.78;;;3.51;100.00
45255;BME280;30989;52.078;21.014;2024-02-26T03:21:28;164672.13;;;3.52;100.00
45255;BME280;30989;52.078;21.014;2024-02-26T03:23:54;164657.47;;;3.46;100.00
45255;BME280;30989;52.078;21.014;2024-02-26T03:26:20;164649.47;;;3.43;100.00
45255;BME280;30989;52.078;21.014;2024-02-26T03:28:47;164638.78;;;3.39;100.00
45255;BME280;30989;52.078;21.014;2024-02-26T03:31:12;164662.78;;;3.48;100.00
45255;BME280;30989;52.078;21.014;2024-02-26T03:33:38;164654.78;;;3.45;100.00
45255;BME280;30989;52.078;21.014;2024-02-26T03:36:04;164656.13;;;3.46;100.00
45255;BME280;30989;52.078;21.014;2024-02-26T03:38:29;164657.47;;;3.46;100.00
45255;BME280;30989;52.078;21.014;2024-02-26T03:40:55;164638.78;;;3.39;100.00
45255;BME280;30989;52.078;21.014;2024-02-26T03:43:21;164653.47;;;3.45;100.00
45255;BME280;30989;52.078;21.014;2024-02-26T03:45:46;164649.47;;;3.43;100.00
45255;BME280;30989;52.078;21.014;2024-02-26T03:48:12;164636.13;;;3.38;100.00
45255;BME280;30989;52.078;21.014;2024-02-26T03:50:37;164633.47;;;3.37;100.00
45255;BME280;30989;52.078;21.014;2024-02-26T03:53:03;164641.47;;;3.40;100.00
45255;BME280;30989;52.078;21.014;2024-02-26T03:55:29;164638.78;;;3.39;100.00
45255;BME280;30989;52.078;21.014;2024-02-26T03:57:54;164638.78;;;3.39;100.00
45255;BME280;30989;52.078;21.014;2024-02-26T04:00:20;164624.13;;;3.34;100.00
45255;BME280;30989;52.078;21.014;2024-02-26T04:02:48;164630.78;;;3.36;100.00
45255;BME280;30989;52.078;21.014;2024-02-26T04:05:14;164636.13;;;3.38;100.00
45255;BME280;30989;52.078;21.014;2024-02-26T04:07:40;164626.81;;;3.35;100.00
45255;BME280;30989;52.078;21.014;2024-02-26T04:10:12;164625.47;;;3.34;100.00
45255;BME280;30989;52.078;21.014;2024-02-26T04:12:39;164617.47;;;3.31;100.00
45255;BME280;30989;52.078;21.014;2024-02-26T04:15:07;164621.47;;;3.33;100.00
45255;BME280;30989;52.078;21.014;2024-02-26T04:17:33;164620.13;;;3.32;100.00
45255;BME280;30989;52.078;21.014;2024-02-26T04:19:58;164616.13;;;3.31;100.00
45255;BME280;30989;52.078;21.014;2024-02-26T04:22:24;164617.47;;;3.31;100.00
45255;BME280;30989;52.078;21.014;2024-02-26T04:24:49;164616.13;;;3.31;100.00
45255;BME280;30989;52.078;21.014;2024-02-26T04:27:15;164605.47;;;3.27;100.00
45255;BME280;30989;52.078;21.014;2024-02-26T04:29:40;164600.13;;;3.24;100.00
45255;BME280;30989;52.078;21.014;2024-02-26T04:32:06;164597.47;;;3.23;100.00
45255;BME280;30989;52.078;21.014;2024-02-26T04:34:32;164593.47;;;3.22;100.00
45255;BME280;30989;52.078;21.014;2024-02-26T04:36:57;164593.47;;;3.22;100.00
45255;BME280;30989;52.078;21.014;2024-02-26T04:39:23;164577.50;;;3.16;100.00
45255;BME280;30989;52.078;21.014;2024-02-26T04:41:48;164578.81;;;3.16;100.00
45255;BME280;30989;52.078;21.014;2024-02-26T04:44:14;164568.16;;;3.12;100.00
45255;BME280;30989;52.078;21.014;2024-02-26T04:46:39;164564.16;;;3.11;100.00
45255;BME280;30989;52.078;21.014;2024-02-26T04:49:05;164536.19;;;3.00;100.00
45255;BME280;30989;52.078;21.014;2024-02-26T04:51:31;164553.50;;;3.07;100.00
45255;BME280;30989;52.078;21.014;2024-02-26T04:53:56;164548.16;;;3.05;100.00
45255;BME280;30989;52.078;21.014;2024-02-26T04:56:22;164550.84;;;3.06;100.00
45255;BME280;30989;52.078;21.014;2024-02-26T04:58:47;164550.84;;;3.06;100.00
45255;BME280;30989;52.078;21.014;2024-02-26T05:01:13;164528.19;;;2.97;100.00
45255;BME280;30989;52.078;21.014;2024-02-26T05:03:41;164554.84;;;3.07;100.00
45255;BME280;30989;52.078;21.014;2024-02-26T05:06:06;164558.81;;;3.09;100.00
45255;BME280;30989;52.078;21.014;2024-02-26T05:08:32;164536.19;;;3.00;100.00
45255;BME280;30989;52.078;21.014;2024-02-26T05:10:59;164578.81;;;3.16;100.00
45255;BME280;30989;52.078;21.014;2024-02-26T05:13:25;164586.81;;;3.19;100.00
45255;BME280;30989;52.078;21.014;2024-02-26T05:15:51;164597.47;;;3.23;100.00
45255;BME280;30989;52.078;21.014;2024-02-26T05:18:17;164608.13;;;3.28;100.00
45255;BME280;30989;52.078;21.014;2024-02-26T05:20:43;164604.13;;;3.26;100.00
45255;BME280;30989;52.078;21.014;2024-02-26T05:23:09;164617.47;;;3.31;100.00
45255;BME280;30989;52.078;21.014;2024-02-26T05:25:34;164625.47;;;3.34;100.00
45255;BME280;30989;52.078;21.014;2024-02-26T05:28:00;164628.13;;;3.35;100.00
45255;BME280;30989;52.078;21.014;2024-02-26T05:30:26;164632.13;;;3.37;100.00
45255;BME280;30989;52.078;21.014;2024-02-26T05:32:53;164634.78;;;3.38;100.00
45255;BME280;30989;52.078;21.014;2024-02-26T05:35:19;164641.47;;;3.40;100.00
45255;BME280;30989;52.078;21.014;2024-02-26T05:37:44;164636.13;;;3.38;100.00
45255;BME280;30989;52.078;21.014;2024-02-26T05:40:10;164646.78;;;3.42;100.00
45255;BME280;30989;52.078;21.014;2024-02-26T05:42:36;164656.13;;;3.46;100.00
45255;BME280;30989;52.078;21.014;2024-02-26T05:45:02;164665.47;;;3.49;100.00
45255;BME280;30989;52.078;21.014;2024-02-26T05:47:32;164670.78;;;3.51;100.00
45255;BME280;30989;52.078;21.014;2024-02-26T05:49:58;164672.13;;;3.52;100.00
45255;BME280;30989;52.078;21.014;2024-02-26T05:52:26;164693.44;;;3.60;100.00
45255;BME280;30989;52.078;21.014;2024-02-26T05:54:53;164702.78;;;3.64;100.00
45255;BME280;30989;52.078;21.014;2024-02-26T05:57:19;164720.13;;;3.70;100.00
45255;BME280;30989;52.078;21.014;2024-02-26T05:59:44;164737.44;;;3.77;100.00
45255;BME280;30989;52.078;21.014;2024-02-26T06:02:10;164756.09;;;3.84;100.00
45255;BME280;30989;52.078;21.014;2024-02-26T06:04:36;164772.09;;;3.90;100.00
45255;BME280;30989;52.078;21.014;2024-02-26T06:07:01;164797.44;;;4.00;100.00
45255;BME280;30989;52.078;21.014;2024-02-26T06:09:27;164806.78;;;4.03;100.00
45255;BME280;30989;52.078;21.014;2024-02-26T06:11:52;164830.78;;;4.12;100.00
45255;BME280;30989;52.078;21.014;2024-02-26T06:14:18;164853.44;;;4.21;100.00
45255;BME280;30989;52.078;21.014;2024-02-26T06:16:44;164872.13;;;4.28;100.00
45255;BME280;30989;52.078;21.014;2024-02-26T06:19:10;164894.81;;;4.37;100.00
45255;BME280;30989;52.078;21.014;2024-02-26T06:21:36;164926.81;;;4.49;100.00
45255;BME280;30989;52.078;21.014;2024-02-26T06:24:01;164948.16;;;4.57;100.00
45255;BME280;30989;52.078;21.014;2024-02-26T06:26:27;164969.50;;;4.65;100.00
45255;BME280;30989;52.078;21.014;2024-02-26T06:28:55;164998.84;;;4.76;100.00
45255;BME280;30989;52.078;21.014;2024-02-26T06:31:23;165020.19;;;4.84;100.00
45255;BME280;30989;52.078;21.014;2024-02-26T06:33:49;165044.22;;;4.94;100.00
45255;BME280;30989;52.078;21.014;2024-02-26T06:36:17;165057.56;;;4.99;100.00
45255;BME280;30989;52.078;21.014;2024-02-26T06:38:43;165080.25;;;5.07;100.00
45255;BME280;30989;52.078;21.014;2024-02-26T06:41:08;165080.25;;;5.07;100.00
45255;BME280;30989;52.078;21.014;2024-02-26T06:43:34;165096.25;;;5.13;100.00
45255;BME280;30989;52.078;21.014;2024-02-26T06:45:59;165109.59;;;5.18;100.00
45255;BME280;30989;52.078;21.014;2024-02-26T06:48:25;165113.66;;;5.20;100.00
45255;BME280;30989;52.078;21.014;2024-02-26T06:50:50;165112.28;;;5.19;100.00
45255;BME280;30989;52.078;21.014;2024-02-26T06:53:16;165113.66;;;5.20;100.00
45255;BME280;30989;52.078;21.014;2024-02-26T06:55:42;165121.66;;;5.23;100.00
45255;BME280;30989;52.078;21.014;2024-02-26T06:58:08;165129.69;;;5.26;100.00
45255;BME280;30989;52.078;21.014;2024-02-26T07:00:34;165123.00;;;5.24;100.00
45255;BME280;30989;52.078;21.014;2024-02-26T07:02:59;165151.03;;;5.34;100.00
45255;BME280;30989;52.078;21.014;2024-02-26T07:05:25;165163.03;;;5.39;100.00
45255;BME280;30989;52.078;21.014;2024-02-26T07:07:52;165172.38;;;5.42;100.00
45255;BME280;30989;52.078;21.014;2024-02-26T07:10:18;165183.06;;;5.46;100.00
45255;BME280;30989;52.078;21.014;2024-02-26T07:12:44;165201.75;;;5.54;100.00
45255;BME280;30989;52.078;21.014;2024-02-26T07:15:10;165223.09;;;5.62;100.00
45255;BME280;30989;52.078;21.014;2024-02-26T07:17:35;165244.47;;;5.70;100.00
45255;BME280;30989;52.078;21.014;2024-02-26T07:20:01;165261.81;;;5.76;100.00
45255;BME280;30989;52.078;21.014;2024-02-26T07:22:30;165283.19;;;5.85;100.00
45255;BME280;30989;52.078;21.014;2024-02-26T07:24:55;165297.94;;;5.90;100.00
45255;BME280;30989;52.078;21.014;2024-02-26T07:27:21;165316.63;;;5.97;100.00
45255;BME280;30989;52.078;21.014;2024-02-26T07:29:47;165343.31;;;6.07;100.00
45255;BME280;30989;52.078;21.014;2024-02-26T07:32:12;165386.06;;;6.24;100.00
45255;BME280;30989;52.078;21.014;2024-02-26T07:34:38;165415.44;;;6.35;100.00
45255;BME280;30989;52.078;21.014;2024-02-26T07:37:07;165458.19;;;6.51;100.00
45255;BME280;30989;52.078;21.014;2024-02-26T07:39:33;165479.56;;;6.59;100.00
45255;BME280;30989;52.078;21.014;2024-02-26T07:41:58;165531.66;;;6.79;100.00
45255;BME280;30989;52.078;21.014;2024-02-26T07:44:24;165569.06;;;6.93;100.00
45255;BME280;30989;52.078;21.014;2024-02-26T07:46:49;165605.16;;;7.07;100.00
45255;BME280;30989;52.078;21.014;2024-02-26T07:49:15;165639.91;;;7.20;100.00
45255;BME280;30989;52.078;21.014;2024-02-26T07:51:40;165663.94;;;7.29;100.00
45255;BME280;30989;52.078;21.014;2024-02-26T07:54:06;165714.75;;;7.49;100.00
45255;BME280;30989;52.078;21.014;2024-02-26T07:56:31;165750.84;;;7.62;100.00
45255;BME280;30989;52.078;21.014;2024-02-26T07:58:57;165786.94;;;7.76;100.00
45255;BME280;30989;52.078;21.014;2024-02-26T08:01:22;165824.38;;;7.90;100.00
45255;BME280;30989;52.078;21.014;2024-02-26T08:03:48;165849.75;;;8.00;100.00
45255;BME280;30989;52.078;21.014;2024-02-26T08:06:14;165883.19;;;8.13;100.00
45255;BME280;30989;52.078;21.014;2024-02-26T08:08:39;165921.97;;;8.27;100.00
45255;BME280;30989;52.078;21.014;2024-02-26T08:11:05;165958.13;;;8.41;100.00
45255;BME280;30989;52.078;21.014;2024-02-26T08:13:30;165991.56;;;8.54;100.00
45255;BME280;30989;52.078;21.014;2024-02-26T08:15:56;166007.63;;;8.60;100.00
45255;BME280;30989;52.078;21.014;2024-02-26T08:18:21;166046.41;;;8.75;100.00
45255;BME280;30989;52.078;21.014;2024-02-26T08:20:47;166078.53;;;8.87;100.00
45255;BME280;30989;52.078;21.014;2024-02-26T08:23:14;166095.91;;;8.93;100.00
45255;BME280;30989;52.078;21.014;2024-02-26T08:25:40;166121.34;;;9.03;100.00
45255;BME280;30989;52.078;21.014;2024-02-26T08:28:05;166140.06;;;9.10;100.00
45255;BME280;30989;52.078;21.014;2024-02-26T08:30:31;166164.16;;;9.19;100.00
45255;BME280;30989;52.078;21.014;2024-02-26T08:32:56;166180.22;;;9.25;100.00
45255;BME280;30989;52.078;21.014;2024-02-26T08:35:22;166193.59;;;9.30;100.00
45255;BME280;30989;52.078;21.014;2024-02-26T08:37:47;166213.66;;;9.38;100.00
45255;BME280;30989;52.078;21.014;2024-02-26T08:40:14;166229.72;;;9.44;100.00
45255;BME280;30989;52.078;21.014;2024-02-26T08:42:40;166235.09;;;9.46;100.00
45255;BME280;30989;52.078;21.014;2024-02-26T08:45:06;166241.78;;;9.49;100.00
45255;BME280;30989;52.078;21.014;2024-02-26T08:47:32;166248.47;;;9.51;100.00
45255;BME280;30989;52.078;21.014;2024-02-26T08:49:58;166265.88;;;9.58;100.00
45255;BME280;30989;52.078;21.014;2024-02-26T08:52:23;166295.31;;;9.69;100.00
45255;BME280;30989;52.078;21.014;2024-02-26T08:54:49;166332.81;;;9.83;100.00
45255;BME280;30989;52.078;21.014;2024-02-26T08:57:15;166362.25;;;9.94;100.00
45255;BME280;30989;52.078;21.014;2024-02-26T08:59:40;166390.38;;;10.05;100.00
45255;BME280;30989;52.078;21.014;2024-02-26T09:02:08;166413.13;;;10.14;100.00
45255;BME280;30989;52.078;21.014;2024-02-26T09:04:34;166448.00;;;10.27;100.00
45255;BME280;30989;52.078;21.014;2024-02-26T09:07:01;166492.25;;;10.44;100.00
45255;BME280;30989;52.078;21.014;2024-02-26T09:09:27;166517.69;;;10.53;100.00
45255;BME280;30989;52.078;21.014;2024-02-26T09:11:53;166547.16;;;10.64;100.00
45255;BME280;30989;52.078;21.014;2024-02-26T09:14:20;166564.56;;;10.71;100.00
45255;BME280;30989;52.078;21.014;2024-02-26T09:16:46;166600.72;;;10.85;100.00
45255;BME280;30989;52.078;21.014;2024-02-26T09:19:14;166611.44;;;10.89;100.00
45255;BME280;30989;52.078;21.014;2024-02-26T09:21:43;166638.25;;;10.99;100.00
45255;BME280;30989;52.078;21.014;2024-02-26T09:24:08;166652.97;;;11.05;100.00
45255;BME280;30989;52.078;21.014;2024-02-26T09:26:34;166669.06;;;11.11;100.00
45255;BME280;30989;52.078;21.014;2024-02-26T09:28:59;166671.72;;;11.12;100.00
45255;BME280;30989;52.078;21.014;2024-02-26T09:31:25;166678.44;;;11.14;100.00
45255;BME280;30989;52.078;21.014;2024-02-26T09:33:50;166685.13;;;11.17;100.00
45255;BME280;30989;52.078;21.014;2024-02-26T09:36:16;166690.50;;;11.19;100.00
45255;BME280;30989;52.078;21.014;2024-02-26T09:38:41;166689.16;;;11.18;100.00
45255;BME280;30989;52.078;21.014;2024-02-26T09:41:13;166675.75;;;11.13;100.00
45255;BME280;30989;52.078;21.014;2024-02-26T09:43:44;166657.00;;;11.06;100.00
45255;BME280;30989;52.078;21.014;2024-02-26T09:46:11;166657.00;;;11.06;100.00
45255;BME280;30989;52.078;21.014;2024-02-26T09:48:37;166658.34;;;11.07;100.00
45255;BME280;30989;52.078;21.014;2024-02-26T09:51:03;166638.25;;;10.99;100.00
45255;BME280;30989;52.078;21.014;2024-02-26T09:53:30;166614.13;;;10.90;100.00
45255;BME280;30989;52.078;21.014;2024-02-26T09:55:58;166571.25;;;10.74;100.00
45255;BME280;30989;52.078;21.014;2024-02-26T09:58:26;166544.47;;;10.63;100.00
45255;BME280;30989;52.078;21.014;2024-02-26T10:00:56;166528.41;;;10.57;100.00
45255;BME280;30989;52.078;21.014;2024-02-26T10:03:28;166523.03;;;10.55;100.00
45255;BME280;30989;52.078;21.014;2024-02-26T10:05:55;166525.72;;;10.56;100.00
45255;BME280;30989;52.078;21.014;2024-02-26T10:08:23;166543.13;;;10.63;100.00
45255;BME280;30989;52.078;21.014;2024-02-26T10:10:49;166547.16;;;10.64;100.00
45255;BME280;30989;52.078;21.014;2024-02-26T10:13:16;166553.84;;;10.67;100.00
45255;BME280;30989;52.078;21.014;2024-02-26T10:15:41;166559.19;;;10.69;100.00
45255;BME280;30989;52.078;21.014;2024-02-26T10:18:07;166569.91;;;10.73;100.00
45255;BME280;30989;52.078;21.014;2024-02-26T10:20:33;166567.25;;;10.72;100.00
45255;BME280;30989;52.078;21.014;2024-02-26T10:23:02;166549.81;;;10.65;100.00
45255;BME280;30989;52.078;21.014;2024-02-26T10:25:27;166531.06;;;10.58;100.00
45255;BME280;30989;52.078;21.014;2024-02-26T10:27:52;166527.06;;;10.57;100.00
45255;BME280;30989;52.078;21.014;2024-02-26T10:30:22;166506.97;;;10.49;100.00
45255;BME280;30989;52.078;21.014;2024-02-26T10:32:49;166477.44;;;10.38;100.00
45255;BME280;30989;52.078;21.014;2024-02-26T10:35:16;166504.28;;;10.48;100.00
45255;BME280;30989;52.078;21.014;2024-02-26T10:37:43;166511.00;;;10.51;100.00
45255;BME280;30989;52.078;21.014;2024-02-26T10:40:12;166528.41;;;10.57;100.00
45255;BME280;30989;52.078;21.014;2024-02-26T10:42:38;166529.75;;;10.58;100.00
45255;BME280;30989;52.078;21.014;2024-02-26T10:45:05;166528.41;;;10.57;100.00
45255;BME280;30989;52.078;21.014;2024-02-26T10:47:34;166528.41;;;10.57;100.00
45255;BME280;30989;52.078;21.014;2024-02-26T10:50:05;166544.47;;;10.63;100.00
45255;BME280;30989;52.078;21.014;2024-02-26T10:52:33;166565.91;;;10.72;100.00
45255;BME280;30989;52.078;21.014;2024-02-26T10:55:03;166583.31;;;10.78;100.00
45255;BME280;30989;52.078;21.014;2024-02-26T10:57:34;166603.41;;;10.86;100.00
45255;BME280;30989;52.078;21.014;2024-02-26T11:00:03;166616.81;;;10.91;100.00
45255;BME280;30989;52.078;21.014;2024-02-26T11:02:32;166667.72;;;11.10;100.00
45255;BME280;30989;52.078;21.014;2024-02-26T11:05:05;166831.19;;;11.72;100.00
45255;BME280;30989;52.078;21.014;2024-02-26T11:07:31;167139.63;;;12.89;100.00
45255;BME280;30989;52.078;21.014;2024-02-26T11:09:59;167449.63;;;14.06;100.00
45255;BME280;30989;52.078;21.014;2024-02-26T11:12:25;167637.63;;;14.77;100.00
45255;BME280;30989;52.078;21.014;2024-02-26T11:14:54;167735.66;;;15.14;100.00
45255;BME280;30989;52.078;21.014;2024-02-26T11:17:28;167778.63;;;15.31;100.00
45255;BME280;30989;52.078;21.014;2024-02-26T11:19:57;167759.81;;;15.24;100.00
45255;BME280;30989;52.078;21.014;2024-02-26T11:22:24;167749.09;;;15.20;100.00
45255;BME280;30989;52.078;21.014;2024-02-26T11:24:54;167792.06;;;15.36;100.00
45255;BME280;30989;52.078;21.014;2024-02-26T11:27:51;167840.44;;;15.54;100.00
45255;BME280;30989;52.078;21.014;2024-02-26T11:30:16;167966.81;;;16.02;100.00
45255;BME280;30989;52.078;21.014;2024-02-26T11:32:48;168169.81;;;16.79;100.00
45255;BME280;30989;52.078;21.014;2024-02-26T11:35:14;168300.25;;;17.28;100.00
45255;BME280;30989;52.078;21.014;2024-02-26T11:37:53;168446.88;;;17.83;100.00
45255;BME280;30989;52.078;21.014;2024-02-26T11:40:19;168658.16;;;18.63;100.00
45255;BME280;30989;52.078;21.014;2024-02-26T11:42:45;168834.50;;;19.29;100.00
45255;BME280;30989;52.078;21.014;2024-02-26T11:48:14;168842.56;;;19.32;98.44
45255;BME280;30989;52.078;21.014;2024-02-26T11:50:42;168998.81;;;19.91;100.00
45255;BME280;30989;52.078;21.014;2024-02-26T11:53:30;169223.78;;;20.76;99.48
45255;BME280;30989;52.078;21.014;2024-02-26T11:58:45;169494.78;;;21.78;90.97
45255;BME280;30989;52.078;21.014;2024-02-26T12:01:43;169431.44;;;21.54;78.96
45255;BME280;30989;52.078;21.014;2024-02-26T12:04:14;169295.25;;;21.03;85.01
45255;BME280;30989;52.078;21.014;2024-02-26T12:06:48;169109.25;;;20.33;86.38
45255;BME280;30989;52.078;21.014;2024-02-26T12:09:31;169028.44;;;20.03;84.31
45255;BME280;30989;52.078;21.014;2024-02-26T12:11:56;169041.91;;;20.08;87.93
45255;BME280;30989;52.078;21.014;2024-02-26T12:14:25;168959.75;;;19.77;82.05
45255;BME280;30989;52.078;21.014;2024-02-26T12:16:51;168842.56;;;19.32;86.29
45255;BME280;30989;52.078;21.014;2024-02-26T12:19:18;168841.22;;;19.32;87.04
45255;BME280;30989;52.078;21.014;2024-02-26T12:21:44;168951.69;;;19.74;88.08
45255;BME280;30989;52.078;21.014;2024-02-26T12:24:11;169122.72;;;20.38;86.78
45255;BME280;30989;52.078;21.014;2024-02-26T12:26:38;169279.09;;;20.97;81.24
45255;BME280;30989;52.078;21.014;2024-02-26T12:29:04;169331.66;;;21.17;81.45
45255;BME280;30989;52.078;21.014;2024-02-26T12:31:30;169388.28;;;21.38;79.74
45255;BME280;30989;52.078;21.014;2024-02-26T12:33:56;169446.25;;;21.60;76.57
45255;BME280;30989;52.078;21.014;2024-02-26T12:36:22;169333.00;;;21.17;77.74
45255;BME280;30989;52.078;21.014;2024-02-26T12:38:50;169203.59;;;20.69;77.72
45255;BME280;30989;52.078;21.014;2024-02-26T12:41:16;168988.03;;;19.87;77.12